sensor_id;sensor_type;location;lat;lon;timestamp;pressure;altitude;pressure_sealevel;temperature;humidity
17311;BME280;8773;43.300;0.394;2023-04-26T00:00:00;99815.00;;;17.45;64.66
17311;BME280;8773;43.300;0.394;2023-04-26T00:02:31;99818.13;;;17.48;64.63
17311;BME280;8773;43.300;0.394;2023-04-26T00:05:00;99819.81;;;17.49;64.40
17311;BME280;8773;43.300;0.394;2023-04-26T00:07:29;99820.59;;;17.43;64.64
17311;BME280;8773;43.300;0.394;2023-04-26T00:09:57;99823.19;;;17.30;64.10
17311;BME280;8773;43.300;0.394;2023-04-26T00:12:26;99827.19;;;17.34;63.78
17311;BME280;8773;43.300;0.394;2023-04-26T00:14:54;99826.78;;;17.37;63.86
17311;BME280;8773;43.300;0.394;2023-04-26T00:17:23;99828.84;;;17.35;64.16
17311;BME280;8773;43.300;0.394;2023-04-26T00:19:51;99825.50;;;17.33;63.85
17311;BME280;8773;43.300;0.394;2023-04-26T00:22:19;99821.47;;;17.22;64.58
17311;BME280;8773;43.300;0.394;2023-04-26T00:24:47;99821.03;;;17.12;65.09
17311;BME280;8773;43.300;0.394;2023-04-26T00:27:15;99819.44;;;16.96;65.73
17311;BME280;8773;43.300;0.394;2023-04-26T00:29:43;99819.69;;;17.01;65.27
17311;BME280;8773;43.300;0.394;2023-04-26T00:32:11;99826.31;;;16.99;65.67
17311;BME280;8773;43.300;0.394;2023-04-26T00:34:41;99818.66;;;17.02;66.08
17311;BME280;8773;43.300;0.394;2023-04-26T00:37:09;99811.00;;;17.06;65.64
17311;BME280;8773;43.300;0.394;2023-04-26T00:39:37;99821.84;;;17.13;64.94
17311;BME280;8773;43.300;0.394;2023-04-26T00:42:05;99812.88;;;17.06;65.49
17311;BME280;8773;43.300;0.394;2023-04-26T00:44:33;99812.03;;;17.05;65.32
17311;BME280;8773;43.300;0.394;2023-04-26T00:47:02;99811.25;;;17.11;65.27
17311;BME280;8773;43.300;0.394;2023-04-26T00:49:30;99814.63;;;17.20;65.10
17311;BME280;8773;43.300;0.394;2023-04-26T00:51:59;99807.56;;;17.19;65.16
17311;BME280;8773;43.300;0.394;2023-04-26T00:54:27;99809.03;;;17.21;64.90
17311;BME280;8773;43.300;0.394;2023-04-26T00:56:56;99808.63;;;17.24;64.73
17311;BME280;8773;43.300;0.394;2023-04-26T00:59:25;99813.56;;;17.14;64.88
17311;BME280;8773;43.300;0.394;2023-04-26T01:01:54;99808.31;;;17.06;64.92
17311;BME280;8773;43.300;0.394;2023-04-26T01:04:23;99809.28;;;16.98;64.73
17311;BME280;8773;43.300;0.394;2023-04-26T01:06:54;99806.06;;;17.10;64.54
17311;BME280;8773;43.300;0.394;2023-04-26T01:09:23;99802.53;;;17.09;64.67
17311;BME280;8773;43.300;0.394;2023-04-26T01:11:54;99799.63;;;17.11;64.98
17311;BME280;8773;43.300;0.394;2023-04-26T01:14:24;99799.63;;;17.11;64.75
17311;BME280;8773;43.300;0.394;2023-04-26T01:16:52;99794.47;;;17.16;65.13
17311;BME280;8773;43.300;0.394;2023-04-26T01:19:21;99795.53;;;17.21;64.82
17311;BME280;8773;43.300;0.394;2023-04-26T01:21:52;99794.69;;;17.21;64.84
17311;BME280;8773;43.300;0.394;2023-04-26T01:24:21;99792.56;;;17.10;65.29
17311;BME280;8773;43.300;0.394;2023-04-26T01:26:49;99783.97;;;16.99;65.12
17311;BME280;8773;43.300;0.394;2023-04-26T01:29:19;99784.50;;;16.88;65.27
17311;BME280;8773;43.300;0.394;2023-04-26T01:31:48;99785.72;;;16.86;65.05
17311;BME280;8773;43.300;0.394;2023-04-26T01:34:16;99783.34;;;16.97;64.97
17311;BME280;8773;43.300;0.394;2023-04-26T01:36:44;99778.84;;;17.04;65.08
17311;BME280;8773;43.300;0.394;2023-04-26T01:39:12;99779.06;;;17.10;64.92
17311;BME280;8773;43.300;0.394;2023-04-26T01:41:41;99775.78;;;17.14;64.69
17311;BME280;8773;43.300;0.394;2023-04-26T01:44:09;99773.50;;;17.11;63.79
17311;BME280;8773;43.300;0.394;2023-04-26T01:46:37;99766.03;;;17.13;63.76
17311;BME280;8773;43.300;0.394;2023-04-26T01:49:05;99757.94;;;17.13;64.05
17311;BME280;8773;43.300;0.394;2023-04-26T01:51:33;99757.44;;;17.03;64.59
17311;BME280;8773;43.300;0.394;2023-04-26T01:54:01;99754.75;;;17.03;64.78
17311;BME280;8773;43.300;0.394;2023-04-26T01:56:30;99756.56;;;16.96;65.33
17311;BME280;8773;43.300;0.394;2023-04-26T01:58:59;99745.19;;;17.00;65.27
17311;BME280;8773;43.300;0.394;2023-04-26T02:01:27;99743.50;;;16.99;65.10
17311;BME280;8773;43.300;0.394;2023-04-26T02:03:55;99744.53;;;16.98;65.21
17311;BME280;8773;43.300;0.394;2023-04-26T02:06:23;99748.28;;;16.97;64.84
17311;BME280;8773;43.300;0.394;2023-04-26T02:08:52;99746.16;;;16.93;64.78
17311;BME280;8773;43.300;0.394;2023-04-26T02:11:21;99746.75;;;16.88;65.25
17311;BME280;8773;43.300;0.394;2023-04-26T02:13:50;99741.75;;;16.85;65.24
17311;BME280;8773;43.300;0.394;2023-04-26T02:16:19;99749.97;;;16.77;65.28
17311;BME280;8773;43.300;0.394;2023-04-26T02:18:48;99749.34;;;16.75;65.54
17311;BME280;8773;43.300;0.394;2023-04-26T02:21:16;99747.28;;;16.77;65.82
17311;BME280;8773;43.300;0.394;2023-04-26T02:23:44;99736.63;;;16.69;66.19
17311;BME280;8773;43.300;0.394;2023-04-26T02:26:13;99740.00;;;16.71;66.20
17311;BME280;8773;43.300;0.394;2023-04-26T02:28:41;99739.72;;;16.66;66.23
17311;BME280;8773;43.300;0.394;2023-04-26T02:31:12;99735.63;;;16.49;67.07
17311;BME280;8773;43.300;0.394;2023-04-26T02:33:41;99734.22;;;16.31;67.43
17311;BME280;8773;43.300;0.394;2023-04-26T02:36:09;99734.22;;;16.31;67.91
17311;BME280;8773;43.300;0.394;2023-04-26T02:38:37;99727.03;;;16.38;67.96
17311;BME280;8773;43.300;0.394;2023-04-26T02:41:06;99729.25;;;16.28;68.22
17311;BME280;8773;43.300;0.394;2023-04-26T02:43:34;99732.22;;;16.40;67.64
17311;BME280;8773;43.300;0.394;2023-04-26T02:46:05;99722.78;;;16.51;67.62
17311;BME280;8773;43.300;0.394;2023-04-26T02:48:34;99726.38;;;16.58;67.18
17311;BME280;8773;43.300;0.394;2023-04-26T02:51:04;99723.63;;;16.51;67.46
17311;BME280;8773;43.300;0.394;2023-04-26T02:53:32;99719.13;;;16.58;67.26
17311;BME280;8773;43.300;0.394;2023-04-26T02:56:00;99717.84;;;16.54;67.49
17311;BME280;8773;43.300;0.394;2023-04-26T02:58:28;99718.28;;;16.58;66.96
17311;BME280;8773;43.300;0.394;2023-04-26T03:00:57;99724.06;;;16.55;67.05
17311;BME280;8773;43.300;0.394;2023-04-26T03:03:27;99726.63;;;16.63;66.62
17311;BME280;8773;43.300;0.394;2023-04-26T03:05:56;99726.53;;;16.71;66.87
17311;BME280;8773;43.300;0.394;2023-04-26T03:08:26;99722.00;;;16.78;66.54
17311;BME280;8773;43.300;0.394;2023-04-26T03:10:54;99710.94;;;16.73;66.78
17311;BME280;8773;43.300;0.394;2023-04-26T03:13:22;99713.78;;;16.65;66.97
17311;BME280;8773;43.300;0.394;2023-04-26T03:15:50;99708.97;;;16.60;67.85
17311;BME280;8773;43.300;0.394;2023-04-26T03:18:22;99712.75;;;16.66;67.18
17311;BME280;8773;43.300;0.394;2023-04-26T03:20:51;99705.97;;;16.70;67.33
17311;BME280;8773;43.300;0.394;2023-04-26T03:23:19;99713.78;;;16.65;67.59
17311;BME280;8773;43.300;0.394;2023-04-26T03:25:51;99708.16;;;16.38;68.13
17311;BME280;8773;43.300;0.394;2023-04-26T03:28:19;99698.00;;;16.13;69.74
17311;BME280;8773;43.300;0.394;2023-04-26T03:30:47;99701.00;;;16.24;69.15
17311;BME280;8773;43.300;0.394;2023-04-26T03:33:15;99706.41;;;16.24;68.95
17311;BME280;8773;43.300;0.394;2023-04-26T03:35:47;99697.69;;;16.22;69.25
17311;BME280;8773;43.300;0.394;2023-04-26T03:38:17;99697.75;;;16.29;69.07
17311;BME280;8773;43.300;0.394;2023-04-26T03:40:45;99698.03;;;16.41;68.46
17311;BME280;8773;43.300;0.394;2023-04-26T03:43:18;99704.94;;;16.50;68.15
17311;BME280;8773;43.300;0.394;2023-04-26T03:45:46;99696.91;;;16.56;67.94
17311;BME280;8773;43.300;0.394;2023-04-26T03:48:15;99700.44;;;16.57;67.89
17311;BME280;8773;43.300;0.394;2023-04-26T03:50:44;99701.53;;;16.62;68.06
17311;BME280;8773;43.300;0.394;2023-04-26T03:53:12;99701.34;;;16.64;67.73
17311;BME280;8773;43.300;0.394;2023-04-26T03:55:43;99696.13;;;16.62;68.14
17311;BME280;8773;43.300;0.394;2023-04-26T03:58:11;99698.84;;;16.62;67.68
17311;BME280;8773;43.300;0.394;2023-04-26T04:00:41;99692.81;;;16.60;67.77
17311;BME280;8773;43.300;0.394;2023-04-26T04:03:09;99692.16;;;16.58;67.69
17311;BME280;8773;43.300;0.394;2023-04-26T04:05:37;99699.22;;;16.59;67.77
17311;BME280;8773;43.300;0.394;2023-04-26T04:08:05;99693.38;;;16.56;67.95
17311;BME280;8773;43.300;0.394;2023-04-26T04:10:33;99692.56;;;16.55;67.81
17311;BME280;8773;43.300;0.394;2023-04-26T04:13:02;99688.28;;;16.39;68.66
17311;BME280;8773;43.300;0.394;2023-04-26T04:15:30;99691.16;;;16.38;68.61
17311;BME280;8773;43.300;0.394;2023-04-26T04:18:00;99689.31;;;16.38;68.38
17311;BME280;8773;43.300;0.394;2023-04-26T04:20:28;99683.22;;;16.30;68.83
17311;BME280;8773;43.300;0.394;2023-04-26T04:22:56;99690.09;;;16.11;69.79
17311;BME280;8773;43.300;0.394;2023-04-26T04:25:24;99685.63;;;16.18;69.24
17311;BME280;8773;43.300;0.394;2023-04-26T04:27:52;99683.19;;;16.23;69.08
17311;BME280;8773;43.300;0.394;2023-04-26T04:30:20;99686.13;;;16.28;69.10
17311;BME280;8773;43.300;0.394;2023-04-26T04:32:50;99684.03;;;16.30;68.77
17311;BME280;8773;43.300;0.394;2023-04-26T04:35:21;99690.25;;;16.24;69.55
17311;BME280;8773;43.300;0.394;2023-04-26T04:37:51;99686.25;;;16.20;69.96
17311;BME280;8773;43.300;0.394;2023-04-26T04:40:19;99681.06;;;15.97;70.19
17311;BME280;8773;43.300;0.394;2023-04-26T04:42:47;99678.25;;;15.84;70.88
17311;BME280;8773;43.300;0.394;2023-04-26T04:45:15;99684.22;;;15.80;71.64
17311;BME280;8773;43.300;0.394;2023-04-26T04:47:44;99688.13;;;15.77;71.46
17311;BME280;8773;43.300;0.394;2023-04-26T04:50:13;99682.63;;;15.85;71.05
17311;BME280;8773;43.300;0.394;2023-04-26T04:52:43;99687.47;;;15.96;70.43
17311;BME280;8773;43.300;0.394;2023-04-26T04:55:11;99677.22;;;16.07;70.18
17311;BME280;8773;43.300;0.394;2023-04-26T04:57:39;99685.09;;;16.08;69.74
17311;BME280;8773;43.300;0.394;2023-04-26T05:00:09;99684.34;;;16.14;69.49
17311;BME280;8773;43.300;0.394;2023-04-26T05:02:38;99682.09;;;15.96;70.31
17311;BME280;8773;43.300;0.394;2023-04-26T05:05:07;99678.44;;;15.83;70.70
17311;BME280;8773;43.300;0.394;2023-04-26T05:07:36;99669.75;;;15.87;70.53
17311;BME280;8773;43.300;0.394;2023-04-26T05:10:07;99684.69;;;15.90;70.31
17311;BME280;8773;43.300;0.394;2023-04-26T05:12:35;99684.50;;;15.91;70.20
17311;BME280;8773;43.300;0.394;2023-04-26T05:15:03;99688.69;;;15.94;70.09
17311;BME280;8773;43.300;0.394;2023-04-26T05:17:32;99684.31;;;15.93;70.76
17311;BME280;8773;43.300;0.394;2023-04-26T05:20:00;99687.00;;;15.93;70.89
17311;BME280;8773;43.300;0.394;2023-04-26T05:22:34;99682.53;;;16.00;70.28
17311;BME280;8773;43.300;0.394;2023-04-26T05:25:03;99693.69;;;15.97;70.30
17311;BME280;8773;43.300;0.394;2023-04-26T05:27:32;99692.94;;;16.03;70.16
17311;BME280;8773;43.300;0.394;2023-04-26T05:30:00;99692.81;;;16.11;69.92
17311;BME280;8773;43.300;0.394;2023-04-26T05:32:29;99693.13;;;16.23;69.74
17311;BME280;8773;43.300;0.394;2023-04-26T05:34:57;99691.47;;;16.22;69.84
17311;BME280;8773;43.300;0.394;2023-04-26T05:37:25;99700.22;;;16.30;69.42
17311;BME280;8773;43.300;0.394;2023-04-26T05:39:53;99695.97;;;16.43;69.29
17311;BME280;8773;43.300;0.394;2023-04-26T05:42:21;99697.28;;;16.25;69.81
17311;BME280;8773;43.300;0.394;2023-04-26T05:44:50;99699.94;;;16.47;69.14
17311;BME280;8773;43.300;0.394;2023-04-26T05:47:23;99709.03;;;16.67;68.47
17311;BME280;8773;43.300;0.394;2023-04-26T05:49:51;99703.31;;;16.77;68.28
17311;BME280;8773;43.300;0.394;2023-04-26T05:52:19;99701.34;;;16.92;67.79
17311;BME280;8773;43.300;0.394;2023-04-26T05:54:47;99707.41;;;17.00;67.64
17311;BME280;8773;43.300;0.394;2023-04-26T05:57:15;99712.25;;;17.12;67.08
17311;BME280;8773;43.300;0.394;2023-04-26T05:59:45;99718.75;;;17.24;66.73
17311;BME280;8773;43.300;0.394;2023-04-26T06:02:15;99717.00;;;17.44;65.91
17311;BME280;8773;43.300;0.394;2023-04-26T06:04:43;99712.47;;;17.51;65.32
17311;BME280;8773;43.300;0.394;2023-04-26T06:07:12;99723.88;;;17.53;64.83
17311;BME280;8773;43.300;0.394;2023-04-26T06:09:40;99721.19;;;17.60;64.78
17311;BME280;8773;43.300;0.394;2023-04-26T06:12:08;99714.88;;;17.81;64.60
17311;BME280;8773;43.300;0.394;2023-04-26T06:14:36;99718.25;;;18.02;64.19
17311;BME280;8773;43.300;0.394;2023-04-26T06:17:04;99720.16;;;18.22;63.73
17311;BME280;8773;43.300;0.394;2023-04-26T06:19:34;99724.53;;;18.43;62.77
17311;BME280;8773;43.300;0.394;2023-04-26T06:22:02;99721.25;;;18.74;62.48
17311;BME280;8773;43.300;0.394;2023-04-26T06:24:30;99722.31;;;19.50;61.31
17311;BME280;8773;43.300;0.394;2023-04-26T06:26:58;99720.41;;;20.02;58.17
17311;BME280;8773;43.300;0.394;2023-04-26T06:29:27;99718.50;;;20.16;57.70
17311;BME280;8773;43.300;0.394;2023-04-26T06:31:55;99728.28;;;20.17;57.37
17311;BME280;8773;43.300;0.394;2023-04-26T06:34:23;99728.13;;;20.37;56.52
17311;BME280;8773;43.300;0.394;2023-04-26T06:36:52;99721.59;;;20.69;55.03
17311;BME280;8773;43.300;0.394;2023-04-26T06:39:20;99716.16;;;20.69;55.29
17311;BME280;8773;43.300;0.394;2023-04-26T06:41:48;99719.19;;;20.61;55.69
17311;BME280;8773;43.300;0.394;2023-04-26T06:44:18;99721.53;;;20.26;56.36
17311;BME280;8773;43.300;0.394;2023-04-26T06:46:46;99723.28;;;19.76;57.33
17311;BME280;8773;43.300;0.394;2023-04-26T06:49:15;99731.53;;;19.43;58.20
17311;BME280;8773;43.300;0.394;2023-04-26T06:51:51;99729.41;;;19.51;58.57
17311;BME280;8773;43.300;0.394;2023-04-26T06:54:20;99719.22;;;19.91;57.92
17311;BME280;8773;43.300;0.394;2023-04-26T06:56:47;99716.72;;;20.78;55.60
17311;BME280;8773;43.300;0.394;2023-04-26T06:59:15;99727.31;;;21.47;53.71
17311;BME280;8773;43.300;0.394;2023-04-26T07:01:43;99719.41;;;21.94;52.01
17311;BME280;8773;43.300;0.394;2023-04-26T07:04:11;99720.69;;;22.21;50.94
17311;BME280;8773;43.300;0.394;2023-04-26T07:06:41;99720.69;;;22.21;50.62
17311;BME280;8773;43.300;0.394;2023-04-26T07:09:10;99721.56;;;21.74;51.14
17311;BME280;8773;43.300;0.394;2023-04-26T07:11:38;99718.94;;;21.67;52.41
17311;BME280;8773;43.300;0.394;2023-04-26T07:14:07;99720.50;;;21.75;52.53
17311;BME280;8773;43.300;0.394;2023-04-26T07:16:35;99716.44;;;21.65;52.26
17311;BME280;8773;43.300;0.394;2023-04-26T07:19:03;99715.28;;;21.55;52.45
17311;BME280;8773;43.300;0.394;2023-04-26T07:21:32;99712.66;;;21.67;52.66
17311;BME280;8773;43.300;0.394;2023-04-26T07:24:00;99716.75;;;21.76;52.56
17311;BME280;8773;43.300;0.394;2023-04-26T07:26:30;99716.22;;;21.97;52.26
17311;BME280;8773;43.300;0.394;2023-04-26T07:28:58;99721.28;;;21.93;51.73
17311;BME280;8773;43.300;0.394;2023-04-26T07:31:29;99715.97;;;22.28;50.50
17311;BME280;8773;43.300;0.394;2023-04-26T07:33:58;99727.41;;;22.19;50.94
17311;BME280;8773;43.300;0.394;2023-04-26T07:36:26;99737.19;;;22.38;50.77
17311;BME280;8773;43.300;0.394;2023-04-26T07:38:54;99728.03;;;22.62;49.85
17311;BME280;8773;43.300;0.394;2023-04-26T07:41:22;99726.53;;;23.13;49.35
17311;BME280;8773;43.300;0.394;2023-04-26T07:43:51;99735.00;;;23.05;48.79
17311;BME280;8773;43.300;0.394;2023-04-26T07:46:20;99718.44;;;22.60;49.75
17311;BME280;8773;43.300;0.394;2023-04-26T07:48:48;99722.41;;;22.46;49.88
17311;BME280;8773;43.300;0.394;2023-04-26T07:51:16;99724.34;;;22.57;50.25
17311;BME280;8773;43.300;0.394;2023-04-26T07:53:44;99718.41;;;22.48;50.41
17311;BME280;8773;43.300;0.394;2023-04-26T07:56:12;99726.00;;;22.16;50.80
17311;BME280;8773;43.300;0.394;2023-04-26T07:58:40;99723.22;;;22.05;51.41
17311;BME280;8773;43.300;0.394;2023-04-26T08:01:10;99734.34;;;22.03;51.41
17311;BME280;8773;43.300;0.394;2023-04-26T08:03:39;99734.06;;;22.23;50.89
17311;BME280;8773;43.300;0.394;2023-04-26T08:06:08;99742.09;;;22.18;50.93
17311;BME280;8773;43.300;0.394;2023-04-26T08:08:36;99742.72;;;21.72;51.62
17311;BME280;8773;43.300;0.394;2023-04-26T08:11:10;99736.50;;;20.85;54.03
17311;BME280;8773;43.300;0.394;2023-04-26T08:13:39;99738.13;;;20.92;54.21
17311;BME280;8773;43.300;0.394;2023-04-26T08:16:07;99740.47;;;20.89;54.99
17311;BME280;8773;43.300;0.394;2023-04-26T08:18:36;99745.72;;;21.27;53.83
17311;BME280;8773;43.300;0.394;2023-04-26T08:21:04;99733.94;;;21.33;53.85
17311;BME280;8773;43.300;0.394;2023-04-26T08:23:33;99734.09;;;21.20;54.18
17311;BME280;8773;43.300;0.394;2023-04-26T08:26:03;99730.91;;;21.05;53.92
17311;BME280;8773;43.300;0.394;2023-04-26T08:28:32;99746.09;;;21.30;54.58
17311;BME280;8773;43.300;0.394;2023-04-26T08:31:01;99733.78;;;21.28;53.60
17311;BME280;8773;43.300;0.394;2023-04-26T08:33:29;99743.72;;;21.16;54.61
17311;BME280;8773;43.300;0.394;2023-04-26T08:35:59;99738.59;;;21.08;54.95
17311;BME280;8773;43.300;0.394;2023-04-26T08:38:27;99738.91;;;21.18;54.88
17311;BME280;8773;43.300;0.394;2023-04-26T08:40:57;99733.31;;;21.13;54.69
17311;BME280;8773;43.300;0.394;2023-04-26T08:43:28;99737.19;;;21.23;54.82
17311;BME280;8773;43.300;0.394;2023-04-26T08:45:57;99730.38;;;21.51;54.18
17311;BME280;8773;43.300;0.394;2023-04-26T08:48:27;99740.25;;;21.09;54.95
17311;BME280;8773;43.300;0.394;2023-04-26T08:51:00;99731.50;;;20.88;55.82
17311;BME280;8773;43.300;0.394;2023-04-26T08:53:30;99723.44;;;20.50;57.27
17311;BME280;8773;43.300;0.394;2023-04-26T08:56:03;99732.63;;;20.74;56.42
17311;BME280;8773;43.300;0.394;2023-04-26T08:58:31;99731.97;;;21.04;55.74
17311;BME280;8773;43.300;0.394;2023-04-26T09:01:00;99730.63;;;20.88;55.28
17311;BME280;8773;43.300;0.394;2023-04-26T09:03:29;99731.38;;;21.02;55.71
17311;BME280;8773;43.300;0.394;2023-04-26T09:05:58;99726.78;;;21.20;55.06
17311;BME280;8773;43.300;0.394;2023-04-26T09:08:33;99737.97;;;21.67;53.98
17311;BME280;8773;43.300;0.394;2023-04-26T09:11:03;99738.84;;;21.24;54.84
17311;BME280;8773;43.300;0.394;2023-04-26T09:13:31;99737.25;;;20.98;56.05
17311;BME280;8773;43.300;0.394;2023-04-26T09:15:59;99728.19;;;21.23;55.39
17311;BME280;8773;43.300;0.394;2023-04-26T09:18:30;99732.44;;;21.19;54.98
17311;BME280;8773;43.300;0.394;2023-04-26T09:21:04;99729.84;;;21.60;53.80
17311;BME280;8773;43.300;0.394;2023-04-26T09:23:34;99727.38;;;21.59;53.84
17311;BME280;8773;43.300;0.394;2023-04-26T09:26:15;99718.78;;;21.44;52.91
17311;BME280;8773;43.300;0.394;2023-04-26T09:28:43;99725.13;;;21.74;52.59
17311;BME280;8773;43.300;0.394;2023-04-26T09:31:34;99721.16;;;22.18;51.66
17311;BME280;8773;43.300;0.394;2023-04-26T09:34:04;99713.84;;;22.30;50.52
17311;BME280;8773;43.300;0.394;2023-04-26T09:36:32;99718.56;;;22.65;50.36
17311;BME280;8773;43.300;0.394;2023-04-26T09:39:01;99719.19;;;22.37;51.52
17311;BME280;8773;43.300;0.394;2023-04-26T09:41:41;99724.91;;;22.36;50.77
17311;BME280;8773;43.300;0.394;2023-04-26T09:44:20;99726.59;;;22.18;51.81
17311;BME280;8773;43.300;0.394;2023-04-26T09:47:02;99725.56;;;22.01;52.20
17311;BME280;8773;43.300;0.394;2023-04-26T09:49:31;99721.84;;;22.14;52.40
17311;BME280;8773;43.300;0.394;2023-04-26T09:52:01;99717.19;;;22.33;52.06
17311;BME280;8773;43.300;0.394;2023-04-26T09:54:41;99708.41;;;21.89;52.01
17311;BME280;8773;43.300;0.394;2023-04-26T09:57:10;99704.00;;;22.18;51.42
17311;BME280;8773;43.300;0.394;2023-04-26T09:59:43;99703.13;;;22.06;51.78
17311;BME280;8773;43.300;0.394;2023-04-26T10:02:18;99700.53;;;22.52;50.97
17311;BME280;8773;43.300;0.394;2023-04-26T10:04:48;99696.81;;;23.12;49.55
17311;BME280;8773;43.300;0.394;2023-04-26T10:07:18;99697.34;;;23.37;48.54
17311;BME280;8773;43.300;0.394;2023-04-26T10:09:48;99694.47;;;23.44;47.78
17311;BME280;8773;43.300;0.394;2023-04-26T10:12:18;99691.03;;;23.48;48.57
17311;BME280;8773;43.300;0.394;2023-04-26T10:14:47;99680.00;;;23.55;48.38
17311;BME280;8773;43.300;0.394;2023-04-26T10:17:15;99685.22;;;23.45;49.55
17311;BME280;8773;43.300;0.394;2023-04-26T10:19:47;99685.91;;;23.63;48.46
17311;BME280;8773;43.300;0.394;2023-04-26T10:22:22;99685.56;;;23.88;47.56
17311;BME280;8773;43.300;0.394;2023-04-26T10:24:54;99679.72;;;23.97;46.78
17311;BME280;8773;43.300;0.394;2023-04-26T10:27:48;99683.38;;;24.02;47.14
17311;BME280;8773;43.300;0.394;2023-04-26T10:30:21;99685.44;;;23.95;47.11
17311;BME280;8773;43.300;0.394;2023-04-26T10:33:13;99679.19;;;23.43;48.02
17311;BME280;8773;43.300;0.394;2023-04-26T10:36:10;99683.75;;;23.66;48.23
17311;BME280;8773;43.300;0.394;2023-04-26T10:38:40;99682.53;;;23.33;48.72
17311;BME280;8773;43.300;0.394;2023-04-26T10:41:35;99675.38;;;23.15;49.48
17311;BME280;8773;43.300;0.394;2023-04-26T10:44:41;99666.75;;;23.47;47.78
17311;BME280;8773;43.300;0.394;2023-04-26T10:47:26;99653.16;;;23.75;48.38
17311;BME280;8773;43.300;0.394;2023-04-26T10:50:02;99651.78;;;23.89;47.53
17311;BME280;8773;43.300;0.394;2023-04-26T10:52:32;99663.03;;;23.93;46.86
17311;BME280;8773;43.300;0.394;2023-04-26T10:55:00;99665.84;;;23.98;47.77
17311;BME280;8773;43.300;0.394;2023-04-26T10:57:50;99666.88;;;24.25;47.12
17311;BME280;8773;43.300;0.394;2023-04-26T11:00:27;99667.13;;;23.79;47.63
17311;BME280;8773;43.300;0.394;2023-04-26T11:03:02;99668.19;;;24.06;48.23
17311;BME280;8773;43.300;0.394;2023-04-26T11:05:53;99656.44;;;24.22;47.39
17311;BME280;8773;43.300;0.394;2023-04-26T11:08:25;99662.53;;;24.13;47.21
17311;BME280;8773;43.300;0.394;2023-04-26T11:11:03;99658.94;;;24.07;47.48
17311;BME280;8773;43.300;0.394;2023-04-26T11:13:34;99651.00;;;24.56;46.28
17311;BME280;8773;43.300;0.394;2023-04-26T11:16:04;99651.38;;;24.14;46.59
17311;BME280;8773;43.300;0.394;2023-04-26T11:18:33;99646.03;;;24.19;46.58
17311;BME280;8773;43.300;0.394;2023-04-26T11:21:02;99651.97;;;23.31;48.22
17311;BME280;8773;43.300;0.394;2023-04-26T11:23:31;99645.34;;;23.27;49.45
17311;BME280;8773;43.300;0.394;2023-04-26T11:26:02;99636.28;;;23.10;49.32
17311;BME280;8773;43.300;0.394;2023-04-26T11:28:30;99630.72;;;23.16;49.51
17311;BME280;8773;43.300;0.394;2023-04-26T11:31:01;99635.25;;;23.39;49.28
17311;BME280;8773;43.300;0.394;2023-04-26T11:33:30;99635.44;;;23.21;48.68
17311;BME280;8773;43.300;0.394;2023-04-26T11:36:00;99641.84;;;22.80;50.33
17311;BME280;8773;43.300;0.394;2023-04-26T11:38:28;99634.63;;;22.85;50.33
17311;BME280;8773;43.300;0.394;2023-04-26T11:40:57;99629.31;;;23.42;48.97
17311;BME280;8773;43.300;0.394;2023-04-26T11:43:33;99634.59;;;23.60;48.65
17311;BME280;8773;43.300;0.394;2023-04-26T11:46:04;99628.97;;;24.12;46.97
17311;BME280;8773;43.300;0.394;2023-04-26T11:48:35;99631.59;;;24.52;46.31
17311;BME280;8773;43.300;0.394;2023-04-26T11:51:04;99643.31;;;24.53;46.03
17311;BME280;8773;43.300;0.394;2023-04-26T11:53:37;99630.69;;;24.47;46.01
17311;BME280;8773;43.300;0.394;2023-04-26T11:56:15;99638.25;;;24.78;45.28
17311;BME280;8773;43.300;0.394;2023-04-26T11:58:44;99632.84;;;24.45;45.72
17311;BME280;8773;43.300;0.394;2023-04-26T12:01:20;99629.06;;;24.17;46.32
17311;BME280;8773;43.300;0.394;2023-04-26T12:03:50;99637.47;;;23.82;48.07
17311;BME280;8773;43.300;0.394;2023-04-26T12:06:25;99632.94;;;23.88;47.63
17311;BME280;8773;43.300;0.394;2023-04-26T12:08:56;99629.50;;;24.09;46.29
17311;BME280;8773;43.300;0.394;2023-04-26T12:11:24;99632.13;;;24.04;46.76
17311;BME280;8773;43.300;0.394;2023-04-26T12:13:52;99629.31;;;23.99;46.12
17311;BME280;8773;43.300;0.394;2023-04-26T12:16:22;99626.66;;;23.87;47.09
17311;BME280;8773;43.300;0.394;2023-04-26T12:18:52;99622.94;;;23.93;46.45
17311;BME280;8773;43.300;0.394;2023-04-26T12:21:23;99629.16;;;24.06;46.72
17311;BME280;8773;43.300;0.394;2023-04-26T12:23:54;99622.03;;;23.88;47.96
17311;BME280;8773;43.300;0.394;2023-04-26T12:26:40;99621.13;;;23.99;47.50
17311;BME280;8773;43.300;0.394;2023-04-26T12:29:08;99623.84;;;23.71;48.54
17311;BME280;8773;43.300;0.394;2023-04-26T12:31:38;99625.63;;;23.08;50.06
17311;BME280;8773;43.300;0.394;2023-04-26T12:34:06;99626.97;;;23.34;49.23
17311;BME280;8773;43.300;0.394;2023-04-26T12:36:34;99633.59;;;22.63;51.12
17311;BME280;8773;43.300;0.394;2023-04-26T12:39:02;99631.31;;;22.37;52.61
17311;BME280;8773;43.300;0.394;2023-04-26T12:41:31;99631.78;;;23.04;51.05
17311;BME280;8773;43.300;0.394;2023-04-26T12:43:59;99628.16;;;23.26;51.05
17311;BME280;8773;43.300;0.394;2023-04-26T12:46:27;99634.09;;;23.63;50.20
17311;BME280;8773;43.300;0.394;2023-04-26T12:48:56;99632.44;;;23.62;48.99
17311;BME280;8773;43.300;0.394;2023-04-26T12:51:25;99632.03;;;23.71;48.81
17311;BME280;8773;43.300;0.394;2023-04-26T12:53:53;99631.31;;;24.04;47.11
17311;BME280;8773;43.300;0.394;2023-04-26T12:56:21;99628.00;;;24.18;47.13
17311;BME280;8773;43.300;0.394;2023-04-26T12:58:49;99629.75;;;24.24;46.77
17311;BME280;8773;43.300;0.394;2023-04-26T13:01:17;99625.75;;;24.15;46.87
17311;BME280;8773;43.300;0.394;2023-04-26T13:03:45;99634.63;;;24.56;46.03
17311;BME280;8773;43.300;0.394;2023-04-26T13:06:15;99623.06;;;24.49;45.82
17311;BME280;8773;43.300;0.394;2023-04-26T13:08:43;99635.09;;;24.70;45.83
17311;BME280;8773;43.300;0.394;2023-04-26T13:11:11;99631.00;;;25.06;44.50
17311;BME280;8773;43.300;0.394;2023-04-26T13:13:39;99630.31;;;25.37;44.42
17311;BME280;8773;43.300;0.394;2023-04-26T13:16:10;99623.69;;;25.33;43.82
17311;BME280;8773;43.300;0.394;2023-04-26T13:18:40;99620.44;;;25.85;44.13
17311;BME280;8773;43.300;0.394;2023-04-26T13:21:08;99618.19;;;26.41;43.85
17311;BME280;8773;43.300;0.394;2023-04-26T13:23:38;99624.28;;;26.48;42.04